Time;durP1;ratioP1;P1;durP2;ratioP2;P2;SDS_P1;SDS_P2;PMS_P1;PMS_P2;Temp;Humidity;BMP_temperature;BMP_pressure;BME280_temperature;BME280_humidity;BME280_pressure;Samples;Min_cycle;Max_cycle;Signal;HPM_P1;HPM_P2
2021/01/21 00:01:41;;;;;;;9.20;8.55;;;6.90;99.90;;;;;;5022511;28;20049;-73
2021/01/21 00:04:07;;;;;;;9.07;8.32;;;7.00;99.90;;;;;;5043522;28;20298;-72
2021/01/21 00:06:34;;;;;;;9.50;8.68;;;7.00;99.90;;;;;;5038645;28;20048;-72
2021/01/21 00:09:01;;;;;;;8.55;8.05;;;7.00;99.90;;;;;;5044336;28;20582;-72
2021/01/21 00:11:27;;;;;;;9.07;8.18;;;7.00;99.90;;;;;;5024336;28;20514;-72
2021/01/21 00:13:54;;;;;;;8.80;8.10;;;7.00;99.90;;;;;;5043014;28;20041;-72
2021/01/21 00:16:20;;;;;;;9.45;8.73;;;7.00;99.90;;;;;;5026518;28;20140;-72
2021/01/21 00:18:47;;;;;;;10.23;8.95;;;7.00;99.90;;;;;;5043977;28;20045;-73
2021/01/21 00:21:13;;;;;;;8.93;8.15;;;7.00;99.90;;;;;;5042087;28;20503;-72
2021/01/21 00:23:40;;;;;;;9.32;8.43;;;6.90;99.90;;;;;;5042541;28;20053;-72
2021/01/21 00:26:06;;;;;;;8.65;8.05;;;7.00;99.90;;;;;;5043514;28;20529;-72
2021/01/21 00:28:33;;;;;;;8.85;8.10;;;7.00;99.90;;;;;;5042209;28;20738;-72
2021/01/21 00:30:59;;;;;;;9.45;8.55;;;7.10;99.90;;;;;;4993763;28;20056;-72
2021/01/21 00:33:26;;;;;;;8.95;8.38;;;7.10;99.90;;;;;;5037839;28;20036;-72
2021/01/21 00:35:53;;;;;;;8.77;8.23;;;7.20;99.90;;;;;;5038650;28;20585;-74
2021/01/21 00:38:19;;;;;;;9.57;8.88;;;7.20;99.90;;;;;;5025855;28;20155;-72
2021/01/21 00:40:46;;;;;;;9.32;8.38;;;7.10;99.90;;;;;;5042526;28;20579;-72
2021/01/21 00:43:12;;;;;;;10.13;9.30;;;7.10;99.90;;;;;;5026098;28;20172;-72
2021/01/21 00:45:39;;;;;;;13.63;9.00;;;7.10;99.90;;;;;;5041463;28;20045;-71
2021/01/21 00:48:05;;;;;;;9.82;8.68;;;7.10;99.90;;;;;;5016452;28;20041;-72
2021/01/21 00:50:32;;;;;;;9.00;8.40;;;7.20;99.90;;;;;;5024787;28;20049;-72
2021/01/21 00:52:59;;;;;;;9.35;8.52;;;7.20;99.90;;;;;;5040138;28;20068;-72
2021/01/21 00:55:26;;;;;;;9.00;8.35;;;7.20;99.90;;;;;;5042518;28;20142;-73
2021/01/21 00:57:52;;;;;;;10.00;9.10;;;7.30;99.90;;;;;;5010034;28;20666;-73
2021/01/21 01:00:19;;;;;;;11.95;9.18;;;7.30;99.90;;;;;;5026944;28;20061;-72
2021/01/21 01:02:48;;;;;;;9.07;8.27;;;7.30;99.90;;;;;;5041686;28;20060;-72
2021/01/21 01:05:15;;;;;;;10.13;9.15;;;7.30;99.90;;;;;;5025931;28;20087;-73
2021/01/21 01:07:45;;;;;;;10.15;9.45;;;7.30;99.90;;;;;;5042600;28;20041;-72
2021/01/21 01:10:13;;;;;;;8.88;8.25;;;7.20;99.90;;;;;;5023179;28;20470;-72
2021/01/21 01:12:40;;;;;;;9.10;8.23;;;7.20;99.90;;;;;;5041530;28;20102;-73
2021/01/21 01:15:08;;;;;;;8.68;8.07;;;7.10;99.90;;;;;;5042513;28;20037;-72
2021/01/21 01:17:37;;;;;;;9.02;8.43;;;7.10;99.90;;;;;;5025695;28;20143;-72
2021/01/21 01:20:05;;;;;;;11.95;9.35;;;7.00;99.90;;;;;;5043754;28;20146;-73
2021/01/21 01:22:33;;;;;;;13.68;8.80;;;7.00;99.90;;;;;;5025656;28;20045;-72
2021/01/21 01:24:59;;;;;;;9.15;8.55;;;7.00;99.90;;;;;;5039638;28;20124;-71
2021/01/21 01:27:27;;;;;;;8.70;8.20;;;7.10;99.90;;;;;;5040219;28;20041;-71
2021/01/21 01:29:54;;;;;;;10.07;9.25;;;7.10;99.90;;;;;;5024589;28;20428;-72
2021/01/21 01:32:20;;;;;;;9.48;8.93;;;7.10;99.90;;;;;;5047231;28;20103;-72
2021/01/21 01:34:51;;;;;;;8.73;8.23;;;7.10;99.90;;;;;;5031398;28;20473;-72
2021/01/21 01:37:20;;;;;;;9.55;8.90;;;7.10;99.90;;;;;;5048119;28;20045;-72
2021/01/21 01:39:52;;;;;;;10.07;9.10;;;7.10;99.90;;;;;;5042988;28;20045;-72
2021/01/21 01:42:47;;;;;;;8.98;8.35;;;7.10;99.90;;;;;;5047334;28;20052;-72
2021/01/21 01:45:17;;;;;;;9.13;8.38;;;7.10;99.90;;;;;;5027090;28;20051;-72
2021/01/21 01:47:47;;;;;;;8.52;8.02;;;7.20;99.90;;;;;;5050388;28;20491;-73
2021/01/21 01:50:40;;;;;;;8.60;8.10;;;7.20;99.90;;;;;;5018684;28;20065;-72
2021/01/21 01:53:08;;;;;;;9.20;8.50;;;7.20;99.90;;;;;;5024956;28;20063;-72
2021/01/21 01:55:41;;;;;;;9.32;8.60;;;7.20;99.90;;;;;;5010469;28;20045;-73
2021/01/21 01:58:40;;;;;;;9.85;9.07;;;7.20;99.90;;;;;;5003312;28;20049;-72
2021/01/21 02:01:23;;;;;;;9.15;8.18;;;7.30;99.90;;;;;;5025089;28;20073;-72
2021/01/21 02:03:50;;;;;;;9.63;8.88;;;7.30;99.90;;;;;;5006570;28;20050;-72
2021/01/21 02:06:25;;;;;;;9.43;8.63;;;7.30;99.90;;;;;;5021397;28;20049;-73
2021/01/21 02:08:53;;;;;;;9.25;8.57;;;7.40;99.90;;;;;;5026713;28;20061;-72
2021/01/21 02:11:36;;;;;;;8.80;8.20;;;7.30;99.90;;;;;;5020061;28;20320;-72
2021/01/21 02:14:36;;;;;;;;;;;7.40;99.90;;;;;;5008166;28;20100;-73
2021/01/21 02:17:05;;;;;;;9.52;8.98;;;7.30;99.90;;;;;;4997262;28;20383;-72
2021/01/21 02:20:03;;;;;;;9.07;8.38;;;7.20;99.90;;;;;;5045651;28;20396;-72
2021/01/21 02:22:50;;;;;;;9.18;8.48;;;7.30;99.90;;;;;;5018204;28;20585;-72
2021/01/21 02:25:36;;;;;;;8.63;7.97;;;7.30;99.90;;;;;;4993129;28;20119;-72
2021/01/21 02:28:09;;;;;;;8.63;8.13;;;7.30;99.90;;;;;;5036405;28;20487;-72
2021/01/21 02:30:50;;;;;;;8.45;7.90;;;7.30;99.90;;;;;;4971416;28;20046;-72
2021/01/21 02:33:53;;;;;;;9.63;8.82;;;7.30;99.90;;;;;;4974867;28;20057;-72
2021/01/21 02:36:29;;;;;;;9.38;8.55;;;7.30;99.90;;;;;;5013420;28;20053;-72
2021/01/21 02:39:00;;;;;;;8.82;8.27;;;7.30;99.90;;;;;;4988406;28;20104;-72
2021/01/21 02:41:27;;;;;;;8.88;8.27;;;7.30;99.90;;;;;;4987281;28;20054;-72
2021/01/21 02:43:54;;;;;;;9.80;9.00;;;7.30;99.90;;;;;;4997505;28;20804;-72
2021/01/21 02:46:23;;;;;;;9.40;8.73;;;7.30;99.90;;;;;;4985292;28;20140;-72
2021/01/21 02:48:52;;;;;;;8.95;8.43;;;7.30;99.90;;;;;;4999998;28;20058;-72
2021/01/21 02:51:38;;;;;;;8.63;8.13;;;7.20;99.90;;;;;;4978533;28;20661;-72
2021/01/21 02:54:13;;;;;;;8.60;8.02;;;7.30;99.90;;;;;;4997890;28;20532;-73
2021/01/21 02:56:44;;;;;;;9.93;8.93;;;7.30;99.90;;;;;;4987250;28;20207;-72
2021/01/21 02:59:15;;;;;;;10.02;9.43;;;7.20;99.90;;;;;;4999709;28;20118;-73
2021/01/21 03:01:46;;;;;;;8.68;8.20;;;7.20;99.90;;;;;;5002395;28;20098;-73
2021/01/21 03:04:15;;;;;;;9.35;8.43;;;7.30;99.90;;;;;;5000994;28;20085;-72
2021/01/21 03:06:43;;;;;;;8.73;8.23;;;7.30;99.90;;;;;;4977228;28;20567;-72
2021/01/21 03:09:26;;;;;;;9.43;8.50;;;7.30;99.90;;;;;;5008037;28;20065;-72
2021/01/21 03:11:52;;;;;;;9.02;8.40;;;7.20;99.90;;;;;;5041274;28;20045;-72
2021/01/21 03:14:19;;;;;;;8.40;7.88;;;7.20;99.90;;;;;;5012372;28;20049;-72
2021/01/21 03:16:45;;;;;;;8.88;8.27;;;7.30;99.90;;;;;;5043467;28;20270;-72
2021/01/21 03:19:14;;;;;;;8.80;8.30;;;7.40;99.90;;;;;;5044877;28;20056;-72
2021/01/21 03:21:41;;;;;;;8.60;8.00;;;7.40;99.90;;;;;;5025279;28;20075;-73
2021/01/21 03:24:15;;;;;;;10.38;8.15;;;7.50;99.90;;;;;;5012544;28;20468;-72
2021/01/21 03:26:52;;;;;;;9.23;8.38;;;7.50;99.90;;;;;;5044008;28;20515;-72
2021/01/21 03:29:20;;;;;;;11.73;8.85;;;7.50;99.90;;;;;;5044873;28;20172;-73
2021/01/21 03:31:47;;;;;;;9.07;8.18;;;7.50;99.90;;;;;;5037819;28;20353;-71
2021/01/21 03:34:15;;;;;;;8.98;8.38;;;7.50;99.90;;;;;;5026942;28;20158;-72
2021/01/21 03:36:48;;;;;;;8.63;8.02;;;7.50;99.90;;;;;;5011023;28;20055;-72
2021/01/21 03:39:15;;;;;;;8.93;8.23;;;7.40;99.90;;;;;;5027669;28;20049;-72
2021/01/21 03:42:06;;;;;;;8.68;7.93;;;7.40;99.90;;;;;;5013651;28;20065;-72
2021/01/21 03:45:01;;;;;;;8.85;8.25;;;7.40;99.90;;;;;;5028034;28;20037;-72
2021/01/21 03:47:28;;;;;;;9.15;8.50;;;7.40;99.90;;;;;;5026526;28;20053;-72
2021/01/21 03:50:00;;;;;;;9.38;8.68;;;7.50;99.90;;;;;;5033019;28;20064;-72
2021/01/21 03:52:29;;;;;;;9.02;8.43;;;7.50;99.90;;;;;;5038202;28;20053;-72
2021/01/21 03:55:03;;;;;;;8.65;8.23;;;7.50;99.90;;;;;;5043877;28;20049;-72
2021/01/21 03:57:30;;;;;;;9.48;8.70;;;7.50;99.90;;;;;;5027704;28;20107;-72
2021/01/21 04:00:25;;;;;;;7.90;7.40;;;7.50;99.90;;;;;;5013845;28;20451;-72
2021/01/21 04:02:55;;;;;;;8.60;8.10;;;7.50;99.90;;;;;;5023533;28;20051;-72
2021/01/21 04:05:33;;;;;;;9.10;8.50;;;7.50;99.90;;;;;;5023923;28;20104;-71
2021/01/21 04:08:00;;;;;;;8.55;7.88;;;7.50;99.90;;;;;;5022819;28;20041;-72
2021/01/21 04:10:32;;;;;;;10.10;8.88;;;7.50;99.90;;;;;;5044238;28;20041;-73
2021/01/21 04:13:10;;;;;;;9.18;8.38;;;7.50;99.90;;;;;;5025044;28;20061;-72
2021/01/21 04:15:37;;;;;;;8.80;8.30;;;7.50;99.90;;;;;;5024780;28;20049;-73
2021/01/21 04:18:03;;;;;;;8.85;8.27;;;7.50;99.90;;;;;;5041751;28;20056;-71
2021/01/21 04:20:50;;;;;;;9.25;8.52;;;7.50;99.90;;;;;;5039970;28;20049;-71
2021/01/21 04:23:16;;;;;;;9.57;8.77;;;7.50;99.90;;;;;;5027119;28;20053;-72
2021/01/21 04:25:43;;;;;;;8.73;8.10;;;7.50;99.90;;;;;;5042766;28;20061;-73
2021/01/21 04:28:10;;;;;;;10.02;9.23;;;7.60;99.90;;;;;;5028632;28;20053;-73
2021/01/21 04:30:39;;;;;;;9.65;8.68;;;7.60;99.90;;;;;;5010962;28;20561;-72
2021/01/21 04:33:06;;;;;;;8.85;8.35;;;7.60;99.90;;;;;;5041597;28;20114;-73
2021/01/21 04:35:33;;;;;;;8.82;8.23;;;7.60;99.90;;;;;;5023964;28;20040;-72
2021/01/21 04:37:59;;;;;;;9.35;8.65;;;7.60;99.90;;;;;;5024312;28;20052;-72
2021/01/21 04:40:37;;;;;;;9.40;8.85;;;7.60;99.90;;;;;;5042980;28;20049;-71
2021/01/21 04:43:22;;;;;;;9.00;8.50;;;7.50;99.90;;;;;;5044487;28;20052;-72
2021/01/21 04:45:50;;;;;;;8.75;8.00;;;7.50;99.90;;;;;;5020162;28;20132;-72
2021/01/21 04:48:17;;;;;;;8.45;8.00;;;7.60;99.90;;;;;;5042843;28;20057;-72
2021/01/21 04:50:50;;;;;;;9.77;9.18;;;7.70;99.90;;;;;;5038917;28;20443;-73
2021/01/21 04:53:26;;;;;;;;;;;7.80;99.90;;;;;;5017404;28;20614;-72
2021/01/21 04:56:02;;;;;;;9.40;8.45;;;7.90;99.90;;;;;;5006923;28;19921;-72
2021/01/21 04:58:54;;;;;;;8.73;8.23;;;8.00;99.90;;;;;;5025698;28;20100;-71
2021/01/21 05:01:40;;;;;;;9.52;8.82;;;8.20;99.90;;;;;;5018259;28;20087;-72
2021/01/21 05:04:09;;;;;;;11.52;10.63;;;8.30;99.90;;;;;;5023475;28;20056;-72
2021/01/21 05:07:04;;;;;;;11.57;10.90;;;8.30;99.90;;;;;;5024770;28;20541;-72
2021/01/21 05:09:31;;;;;;;12.30;11.45;;;8.30;99.90;;;;;;5043352;28;20056;-72
2021/01/21 05:12:00;;;;;;;11.52;10.93;;;8.30;99.90;;;;;;5021505;28;20111;-73
2021/01/21 05:14:27;;;;;;;11.07;10.48;;;8.30;99.90;;;;;;5042036;28;20076;-72
2021/01/21 05:17:06;;;;;;;11.85;11.18;;;8.30;99.90;;;;;;5042649;28;20114;-72
2021/01/21 05:19:54;;;;;;;11.70;11.02;;;8.30;99.90;;;;;;5046290;28;20170;-72
2021/01/21 05:22:39;;;;;;;10.88;10.35;;;8.30;99.90;;;;;;5046133;28;20073;-71
2021/01/21 05:25:29;;;;;;;11.70;10.82;;;8.30;99.90;;;;;;5026716;28;20042;-72
2021/01/21 05:28:25;;;;;;;10.40;9.90;;;8.30;99.90;;;;;;5028077;28;20143;-72
2021/01/21 05:30:52;;;;;;;10.35;9.85;;;8.30;99.90;;;;;;5044056;28;20041;-72
2021/01/21 05:33:41;;;;;;;10.63;10.13;;;8.30;99.90;;;;;;5043482;28;20127;-72
2021/01/21 05:36:17;;;;;;;10.18;9.57;;;8.20;99.90;;;;;;5039872;28;20093;-72
2021/01/21 05:39:12;;;;;;;11.38;10.45;;;8.30;99.90;;;;;;5036811;28;20139;-72
2021/01/21 05:41:59;;;;;;;10.13;9.52;;;8.40;99.90;;;;;;5044117;28;20053;-73
2021/01/21 05:44:39;;;;;;;10.20;9.63;;;8.40;99.90;;;;;;5012358;28;20760;-71
2021/01/21 05:47:25;;;;;;;10.13;9.45;;;8.50;99.90;;;;;;5040484;28;20055;-71
2021/01/21 05:49:53;;;;;;;10.35;9.65;;;8.50;99.90;;;;;;5046317;28;20064;-72
2021/01/21 05:52:21;;;;;;;9.80;9.30;;;8.50;99.90;;;;;;5027188;28;20138;-71
2021/01/21 05:54:51;;;;;;;10.52;9.98;;;8.50;99.90;;;;;;5028898;28;20076;-71
2021/01/21 05:57:43;;;;;;;11.07;10.00;;;8.50;99.90;;;;;;5029237;28;20056;-72
2021/01/21 06:00:10;;;;;;;9.60;9.02;;;8.60;99.90;;;;;;5028252;28;20055;-71
2021/01/21 06:02:40;;;;;;;11.70;10.55;;;8.60;99.90;;;;;;5024134;28;20053;-71
2021/01/21 06:05:22;;;;;;;10.32;9.73;;;8.60;99.90;;;;;;5008355;28;20419;-71
2021/01/21 06:07:50;;;;;;;9.63;9.00;;;8.60;99.90;;;;;;5009349;28;20192;-71
2021/01/21 06:10:18;;;;;;;9.65;9.15;;;8.60;99.90;;;;;;5027100;28;20124;-71
2021/01/21 06:12:54;;;;;;;9.68;9.20;;;8.60;99.90;;;;;;5004328;28;20515;-72
2021/01/21 06:15:21;;;;;;;9.93;9.43;;;8.60;99.90;;;;;;5023844;28;20099;-71
2021/01/21 06:17:49;;;;;;;8.77;8.18;;;8.60;99.90;;;;;;5020761;28;20060;-71
2021/01/21 06:20:36;;;;;;;8.68;8.25;;;8.60;99.90;;;;;;5024064;28;20136;-72
2021/01/21 06:23:21;;;;;;;9.52;8.93;;;8.50;99.90;;;;;;5008688;28;20052;-72
2021/01/21 06:26:05;;;;;;;9.80;8.98;;;8.50;99.90;;;;;;5008286;28;20136;-71
2021/01/21 06:28:32;;;;;;;9.02;8.38;;;8.50;99.90;;;;;;5026663;28;20076;-72
2021/01/21 06:31:00;;;;;;;8.25;7.85;;;8.40;99.90;;;;;;5013820;28;20049;-72
2021/01/21 06:33:32;;;;;;;9.02;8.43;;;8.50;99.90;;;;;;5023810;28;20085;-72
2021/01/21 06:36:05;;;;;;;9.05;8.50;;;8.50;99.90;;;;;;5020425;28;20141;-72
2021/01/21 06:38:39;;;;;;;9.20;8.80;;;8.50;99.90;;;;;;5007581;28;20160;-72
2021/01/21 06:41:17;;;;;;;9.25;8.63;;;8.60;99.90;;;;;;5038221;28;20095;-72
2021/01/21 06:43:45;;;;;;;8.93;8.50;;;8.50;99.90;;;;;;5025154;28;20107;-72
2021/01/21 06:46:15;;;;;;;10.18;9.45;;;8.60;99.90;;;;;;5044657;28;20060;-72
2021/01/21 06:48:47;;;;;;;9.57;8.77;;;8.50;99.90;;;;;;5039148;28;20040;-72
2021/01/21 06:51:16;;;;;;;8.27;7.78;;;8.50;99.90;;;;;;5043175;28;20100;-72
2021/01/21 06:53:48;;;;;;;10.50;9.48;;;8.50;99.90;;;;;;5018226;28;20419;-72
2021/01/21 06:56:14;;;;;;;8.90;8.50;;;8.40;99.90;;;;;;5019036;28;20107;-72
2021/01/21 06:58:53;;;;;;;8.13;7.63;;;8.40;99.90;;;;;;5025791;28;20053;-72
2021/01/21 07:01:32;;;;;;;8.63;8.02;;;8.40;99.90;;;;;;5025853;28;20072;-72
2021/01/21 07:04:21;;;;;;;8.27;7.72;;;8.30;99.90;;;;;;5045341;28;20045;-71
2021/01/21 07:07:03;;;;;;;8.43;8.05;;;8.30;99.90;;;;;;5027156;28;20045;-71
2021/01/21 07:09:34;;;;;;;8.35;7.95;;;8.30;99.90;;;;;;5004555;28;20115;-72
2021/01/21 07:12:01;;;;;;;8.52;8.13;;;8.30;99.90;;;;;;5041776;28;20063;-72
2021/01/21 07:14:30;;;;;;;10.02;9.20;;;8.40;99.90;;;;;;5045773;28;20049;-72
2021/01/21 07:17:01;;;;;;;9.13;8.73;;;8.30;99.90;;;;;;5028112;28;20052;-72
2021/01/21 07:19:38;;;;;;;8.82;8.00;;;8.40;99.90;;;;;;5036039;28;20424;-71
2021/01/21 07:22:15;;;;;;;8.50;8.10;;;8.20;99.90;;;;;;5043539;28;20048;-77
2021/01/21 07:24:59;;;;;;;4.93;4.30;;;6.80;99.90;;;;;;5029763;28;20041;-76
2021/01/21 07:27:31;;;;;;;3.80;3.60;;;6.00;99.90;;;;;;5044704;28;20044;-75
2021/01/21 07:30:21;;;;;;;3.53;3.22;;;5.70;99.90;;;;;;5030960;28;20449;-76
2021/01/21 07:32:48;;;;;;;3.92;3.35;;;5.60;99.90;;;;;;5039011;28;20053;-76
2021/01/21 07:35:33;;;;;;;2.70;2.50;;;5.50;99.90;;;;;;5026833;28;20049;-75
2021/01/21 07:38:00;;;;;;;2.75;2.65;;;5.40;99.90;;;;;;5041018;28;20408;-74
2021/01/21 07:40:59;;;;;;;3.60;3.30;;;5.40;99.90;;;;;;5027525;28;20332;-76
2021/01/21 07:43:58;;;;;;;3.15;3.05;;;5.20;99.90;;;;;;4990796;28;20057;-73
2021/01/21 07:46:26;;;;;;;4.85;4.70;;;5.10;99.90;;;;;;5042901;28;20118;-74
2021/01/21 07:49:21;;;;;;;5.15;4.93;;;5.00;99.90;;;;;;5023332;28;20057;-74
2021/01/21 07:51:59;;;;;;;4.95;4.75;;;5.00;99.90;;;;;;5039714;28;20053;-75
2021/01/21 07:54:27;;;;;;;4.68;4.45;;;4.90;99.90;;;;;;5004006;28;20414;-75
2021/01/21 07:56:54;;;;;;;4.32;4.13;;;4.90;99.90;;;;;;5026976;28;20059;-75
2021/01/21 07:59:20;;;;;;;4.57;4.30;;;4.80;99.90;;;;;;5045053;28;20060;-75
2021/01/21 08:01:55;;;;;;;4.80;4.50;;;4.80;99.90;;;;;;5023956;28;20049;-75
2021/01/21 08:04:22;;;;;;;6.65;6.35;;;4.80;99.90;;;;;;5008259;28;20045;-75
2021/01/21 08:06:57;;;;;;;6.95;6.55;;;4.80;99.90;;;;;;5024778;28;20128;-73
2021/01/21 08:09:24;;;;;;;7.20;6.72;;;4.90;99.90;;;;;;5020223;28;20056;-74
2021/01/21 08:11:52;;;;;;;6.68;6.25;;;4.90;99.90;;;;;;5005970;28;20046;-74
2021/01/21 08:14:18;;;;;;;6.18;5.80;;;4.90;99.90;;;;;;5016597;28;20527;-73
2021/01/21 08:16:48;;;;;;;6.70;6.50;;;5.00;99.90;;;;;;5019708;28;20435;-74
2021/01/21 08:19:19;;;;;;;6.88;6.68;;;4.90;99.90;;;;;;5008822;28;20049;-74
2021/01/21 08:21:47;;;;;;;7.38;7.07;;;4.90;99.90;;;;;;4999232;28;20046;-75
2021/01/21 08:24:13;;;;;;;7.10;6.90;;;4.80;99.90;;;;;;5042390;28;20043;-74
2021/01/21 08:26:40;;;;;;;7.32;6.97;;;4.70;99.90;;;;;;5031091;28;20462;-75
2021/01/21 08:29:10;;;;;;;7.72;6.97;;;4.60;99.90;;;;;;5022254;28;20103;-74
2021/01/21 08:31:48;;;;;;;6.88;6.63;;;4.60;99.90;;;;;;5014369;28;20210;-75
2021/01/21 08:34:23;;;;;;;7.00;6.80;;;4.60;99.90;;;;;;5041944;28;20458;-74
2021/01/21 08:36:50;;;;;;;6.43;6.22;;;4.70;99.90;;;;;;5036629;28;20256;-74
2021/01/21 08:39:17;;;;;;;6.90;6.60;;;4.70;99.90;;;;;;5044159;28;20589;-75
2021/01/21 08:41:44;;;;;;;6.75;6.45;;;4.80;99.90;;;;;;5026626;28;20041;-75
2021/01/21 08:44:19;;;;;;;6.90;6.53;;;4.80;99.90;;;;;;5043236;28;20222;-75
2021/01/21 08:47:01;;;;;;;7.10;6.90;;;4.80;99.90;;;;;;5015320;28;20621;-75
2021/01/21 08:49:34;;;;;;;7.38;7.07;;;4.90;99.90;;;;;;5034379;28;20134;-75
2021/01/21 08:52:08;;;;;;;7.18;6.97;;;4.90;99.90;;;;;;5044181;28;20138;-75
2021/01/21 08:54:35;;;;;;;8.15;7.70;;;5.00;99.90;;;;;;5047841;28;20110;-73
2021/01/21 08:57:20;;;;;;;8.23;7.72;;;5.00;99.90;;;;;;5047042;28;20144;-73
2021/01/21 08:59:46;;;;;;;8.35;7.90;;;5.00;99.90;;;;;;5048443;28;20052;-73
2021/01/21 09:02:12;;;;;;;8.70;8.10;;;5.00;99.90;;;;;;5030020;28;20063;-75
2021/01/21 09:04:41;;;;;;;7.97;7.47;;;4.90;99.90;;;;;;5047323;28;20076;-74
2021/01/21 09:07:09;;;;;;;7.45;7.20;;;5.00;99.90;;;;;;5044877;28;20048;-74
2021/01/21 09:09:39;;;;;;;8.10;7.70;;;5.00;99.90;;;;;;5032270;28;20045;-75
2021/01/21 09:12:20;;;;;;;8.45;8.15;;;5.00;99.90;;;;;;5021901;28;20052;-71
2021/01/21 09:15:08;;;;;;;7.38;6.97;;;5.00;99.90;;;;;;5048011;28;20049;-72
2021/01/21 09:17:37;;;;;;;7.97;7.47;;;5.10;99.90;;;;;;5050563;28;20664;-73
2021/01/21 09:20:33;;;;;;;7.78;7.45;;;5.10;99.90;;;;;;5031067;28;20052;-72
2021/01/21 09:23:12;;;;;;;8.43;8.02;;;5.10;99.90;;;;;;5044401;28;20106;-71
2021/01/21 09:25:39;;;;;;;9.40;8.90;;;5.10;99.90;;;;;;5041163;28;20527;-71
2021/01/21 09:28:10;;;;;;;8.35;8.02;;;5.10;99.90;;;;;;5011692;28;20072;-71
2021/01/21 09:30:37;;;;;;;8.25;7.75;;;5.20;99.90;;;;;;5009917;28;20049;-72
2021/01/21 09:33:05;;;;;;;7.60;7.25;;;5.20;99.90;;;;;;5008636;28;20056;-72
2021/01/21 09:35:33;;;;;;;8.25;7.85;;;5.20;99.90;;;;;;5026751;28;20112;-71
2021/01/21 09:38:01;;;;;;;8.52;8.00;;;5.20;99.90;;;;;;5027296;28;20057;-72
2021/01/21 09:40:32;;;;;;;9.63;9.13;;;5.20;99.90;;;;;;5010642;28;20143;-72
2021/01/21 09:43:01;;;;;;;8.75;8.35;;;5.20;99.90;;;;;;5026779;28;20136;-72
2021/01/21 09:45:28;;;;;;;10.60;9.90;;;5.20;99.90;;;;;;5013069;28;20051;-72
2021/01/21 09:47:56;;;;;;;10.32;9.77;;;5.20;99.90;;;;;;5034666;28;20049;-73
2021/01/21 09:50:24;;;;;;;9.50;9.10;;;5.20;99.90;;;;;;5025945;28;20125;-71
2021/01/21 09:52:51;;;;;;;10.25;9.70;;;5.20;99.90;;;;;;5006066;28;20440;-72
2021/01/21 09:55:18;;;;;;;10.70;9.88;;;5.20;99.90;;;;;;5018849;28;20111;-71
2021/01/21 09:57:45;;;;;;;10.35;9.95;;;5.20;99.90;;;;;;5027281;28;20156;-71
2021/01/21 10:00:13;;;;;;;10.85;10.20;;;5.20;99.90;;;;;;5010162;28;20049;-72
2021/01/21 10:02:40;;;;;;;11.30;10.55;;;5.20;99.90;;;;;;5007688;28;20056;-71
2021/01/21 10:05:07;;;;;;;10.45;9.60;;;5.20;99.90;;;;;;5015611;28;20047;-72
2021/01/21 10:07:34;;;;;;;10.90;10.35;;;5.10;99.90;;;;;;5046382;28;20457;-72
2021/01/21 10:10:00;;;;;;;11.55;10.85;;;5.10;99.90;;;;;;5046996;28;20083;-72
2021/01/21 10:12:27;;;;;;;11.77;11.05;;;5.10;99.90;;;;;;5028219;28;20580;-73
2021/01/21 10:14:56;;;;;;;11.48;10.75;;;5.20;99.90;;;;;;5045928;28;20049;-72
2021/01/21 10:17:24;;;;;;;10.70;10.00;;;5.20;99.90;;;;;;5021004;28;20151;-72
2021/01/21 10:19:51;;;;;;;11.35;10.68;;;5.20;99.90;;;;;;5038578;28;20083;-71
2021/01/21 10:22:17;;;;;;;11.55;10.55;;;5.10;99.90;;;;;;5023380;28;20049;-72
2021/01/21 10:24:46;;;;;;;10.98;10.27;;;5.10;99.90;;;;;;5043363;28;20465;-72
2021/01/21 10:27:13;;;;;;;10.93;10.40;;;5.20;99.90;;;;;;5045359;28;20132;-72
2021/01/21 10:29:39;;;;;;;11.00;10.38;;;5.20;99.90;;;;;;5047647;28;20072;-71
2021/01/21 10:32:06;;;;;;;12.68;11.77;;;5.40;99.90;;;;;;5038866;28;20048;-71
2021/01/21 10:34:32;;;;;;;11.25;10.65;;;5.60;99.90;;;;;;5009310;28;20060;-71
2021/01/21 10:37:00;;;;;;;10.73;10.23;;;5.80;99.90;;;;;;5032400;28;20499;-71
2021/01/21 10:39:27;;;;;;;10.48;9.77;;;5.90;99.90;;;;;;5023756;28;20790;-71
2021/01/21 10:41:53;;;;;;;10.35;9.73;;;6.10;99.90;;;;;;5044812;28;20077;-71
2021/01/21 10:44:20;;;;;;;11.10;10.25;;;6.10;99.90;;;;;;5028519;28;20143;-72
2021/01/21 10:46:46;;;;;;;10.65;10.15;;;6.20;99.90;;;;;;5010136;28;20598;-72
2021/01/21 10:49:14;;;;;;;11.57;10.68;;;6.20;99.90;;;;;;5042949;28;20037;-71
2021/01/21 10:51:41;;;;;;;10.70;10.10;;;6.20;99.90;;;;;;5040965;28;20211;-72
2021/01/21 10:54:08;;;;;;;11.07;10.32;;;6.20;99.90;;;;;;5043669;28;20040;-71
2021/01/21 10:56:34;;;;;;;8.18;7.78;;;6.20;99.90;;;;;;5026273;28;20081;-71
2021/01/21 10:59:05;;;;;;;6.40;5.80;;;6.20;99.90;;;;;;5026399;28;20064;-71
2021/01/21 11:01:33;;;;;;;6.72;6.32;;;6.20;99.90;;;;;;5039789;28;20063;-71
2021/01/21 11:04:00;;;;;;;6.97;6.50;;;6.40;99.90;;;;;;5042603;28;20180;-71
2021/01/21 11:06:27;;;;;;;7.82;7.43;;;6.50;99.90;;;;;;5038545;28;20079;-71
2021/01/21 11:08:53;;;;;;;11.45;7.30;;;6.50;99.90;;;;;;5043329;28;20041;-72
2021/01/21 11:11:19;;;;;;;7.72;7.07;;;6.70;99.90;;;;;;5025581;28;20064;-71
2021/01/21 11:13:47;;;;;;;7.65;7.13;;;6.70;99.90;;;;;;5045163;28;20049;-71
2021/01/21 11:16:13;;;;;;;7.18;6.85;;;6.60;99.90;;;;;;5042402;28;20068;-71
2021/01/21 11:18:39;;;;;;;7.30;6.75;;;6.70;99.90;;;;;;5044507;28;20045;-71
2021/01/21 11:21:06;;;;;;;8.55;7.63;;;6.70;99.90;;;;;;5008514;28;20045;-71
2021/01/21 11:23:32;;;;;;;10.77;6.93;;;6.70;99.90;;;;;;5043319;28;20045;-72
2021/01/21 11:25:59;;;;;;;9.30;7.53;;;6.80;99.90;;;;;;5043931;28;20041;-71
2021/01/21 11:28:25;;;;;;;7.63;6.82;;;6.90;99.90;;;;;;5043839;28;20060;-72
2021/01/21 11:30:52;;;;;;;7.22;6.80;;;6.90;99.90;;;;;;5023692;28;20041;-71
2021/01/21 11:33:19;;;;;;;7.93;7.35;;;6.90;99.90;;;;;;5040827;28;20080;-72
2021/01/21 11:35:46;;;;;;;8.65;7.80;;;6.80;99.90;;;;;;5023609;28;20084;-72
2021/01/21 11:38:16;;;;;;;8.25;7.70;;;6.70;99.90;;;;;;5038534;28;20056;-72
2021/01/21 11:40:44;;;;;;;8.02;7.47;;;6.70;99.90;;;;;;5027717;28;20076;-71
2021/01/21 11:43:10;;;;;;;7.70;7.18;;;6.80;99.90;;;;;;5044300;28;20127;-71
2021/01/21 11:45:37;;;;;;;8.52;8.02;;;6.80;99.90;;;;;;5043192;28;20136;-72
2021/01/21 11:48:05;;;;;;;9.00;8.50;;;6.80;99.90;;;;;;5043903;28;20526;-72
2021/01/21 11:50:31;;;;;;;8.05;7.40;;;6.70;99.90;;;;;;5040556;28;20499;-71
2021/01/21 11:52:58;;;;;;;8.73;7.82;;;6.70;99.90;;;;;;5035852;28;20049;-71
2021/01/21 11:55:24;;;;;;;8.35;7.55;;;6.80;99.90;;;;;;5044381;28;20052;-71
2021/01/21 11:57:51;;;;;;;10.00;9.02;;;6.70;99.90;;;;;;5044024;28;20049;-71
2021/01/21 12:00:18;;;;;;;9.70;8.70;;;6.70;99.90;;;;;;5045322;28;20769;-71
2021/01/21 12:02:44;;;;;;;9.63;9.02;;;6.80;99.90;;;;;;5037413;28;20072;-71
2021/01/21 12:05:11;;;;;;;8.70;8.20;;;6.70;99.90;;;;;;5025267;28;20061;-72
2021/01/21 12:07:37;;;;;;;11.32;8.95;;;6.70;99.90;;;;;;5011928;28;20057;-71
2021/01/21 12:10:05;;;;;;;9.07;8.40;;;6.80;99.90;;;;;;5043753;28;20073;-72
2021/01/21 12:12:33;;;;;;;8.52;8.10;;;6.90;99.90;;;;;;5042241;28;20135;-71
2021/01/21 12:14:59;;;;;;;8.10;7.60;;;6.80;99.90;;;;;;5043780;28;20057;-72
2021/01/21 12:17:26;;;;;;;8.73;8.02;;;6.80;99.90;;;;;;5042879;28;20048;-72
2021/01/21 12:19:53;;;;;;;9.07;8.27;;;6.80;99.90;;;;;;5044563;28;20052;-71
2021/01/21 12:22:20;;;;;;;8.40;7.90;;;6.80;99.90;;;;;;5008874;28;20049;-71
2021/01/21 12:24:47;;;;;;;8.77;8.13;;;6.80;99.90;;;;;;5043332;28;20420;-71
2021/01/21 12:27:13;;;;;;;8.57;8.00;;;6.70;99.90;;;;;;5026056;28;20041;-71
2021/01/21 12:29:40;;;;;;;8.48;8.00;;;6.80;99.90;;;;;;5042968;28;20064;-72
2021/01/21 12:32:06;;;;;;;8.35;7.82;;;6.70;99.90;;;;;;5038896;28;20106;-71
2021/01/21 12:34:33;;;;;;;8.55;8.13;;;6.70;99.90;;;;;;5024333;28;20041;-72
2021/01/21 12:37:00;;;;;;;9.30;8.75;;;6.70;99.90;;;;;;5039698;28;20101;-72
2021/01/21 12:39:27;;;;;;;10.48;9.65;;;6.70;99.90;;;;;;5027102;28;20056;-71
2021/01/21 12:41:54;;;;;;;8.95;8.45;;;6.70;99.90;;;;;;5043700;28;20148;-72
2021/01/21 12:44:21;;;;;;;9.02;8.38;;;6.80;99.90;;;;;;5041554;28;20522;-72
2021/01/21 12:46:47;;;;;;;8.32;7.93;;;6.80;99.90;;;;;;5026954;28;20068;-73
2021/01/21 12:49:14;;;;;;;8.85;8.23;;;6.90;99.90;;;;;;5048943;28;20065;-73
2021/01/21 12:51:40;;;;;;;9.55;8.90;;;6.80;99.90;;;;;;5041807;28;20040;-73
2021/01/21 12:54:08;;;;;;;9.23;8.73;;;6.80;99.90;;;;;;5026085;28;20045;-70
2021/01/21 12:56:35;;;;;;;9.90;9.18;;;6.90;99.90;;;;;;5038773;28;20055;-72
2021/01/21 12:59:02;;;;;;;9.27;8.88;;;6.90;99.90;;;;;;5042943;28;20081;-72
2021/01/21 13:01:29;;;;;;;9.48;8.82;;;6.80;99.90;;;;;;5040901;28;20102;-72
2021/01/21 13:03:56;;;;;;;9.52;8.75;;;6.70;99.90;;;;;;5042132;28;20077;-73
2021/01/21 13:06:22;;;;;;;8.70;8.20;;;6.70;99.90;;;;;;5025065;28;20399;-72
2021/01/21 13:08:49;;;;;;;8.98;8.27;;;6.70;99.90;;;;;;5024201;28;20061;-72
2021/01/21 13:11:16;;;;;;;9.82;8.82;;;6.70;99.90;;;;;;5038266;28;20045;-72
2021/01/21 13:13:43;;;;;;;9.98;9.13;;;6.70;99.90;;;;;;5038074;28;20052;-72
2021/01/21 13:16:09;;;;;;;9.82;9.10;;;6.70;99.90;;;;;;5035587;28;20508;-72